Pagrindinis puslapis
METAR-TAF:

METAR-TAF

Oro uostai :

Rodrigesas, Mauricijus

platuma: 19-41S, ilguma: 063-25E, Aukštis: 58 m

METAR: trūkstamas

Laikas: 18:54 (14:54 UTC)

Prognozė

Ataskaita buvo paskelbta 3 valandos ir 44 minutes, ne 11:10 UTC
Prognozė galioja nuo 12 metu 12 UTC su 13 metu 06 UTC
Vėjas 18 kt iš Rytų/Pietryčių su gūsio iki 30 kt
Matomumas 10 km arba daugiau
Išsisklaidę debesys ne aukštis 1800 ft
Tikimybė 30% :
Laikinai
nuo 12 metu 15 UTC su 12 metu 18 UTC
Matomumas: 7000 m
Su prošvaistėmis ne aukštis 1600 ft
Su prošvaistėmis ne aukštis 5000 ft
lietus

TAF: FIMR 121110Z 1212/1306 11018G30KT 9999 SCT018 PROB30 TEMPO 1215/1218 7000 -SHRA BKN016 BKN050

Orai ataskaitas ir orų prognozės (METAR, TAF).

turimą stotys yra geltonos ir raudonos taškus žemėlapyje.

Perkelti pele per norėdami pamatyti stoties vardą.

Tada spustelėkite, norėdami matyti oro stebėjimo ir prognozės.

Norėdami pakeisti žemėlapį: spustelėkite ant žalios mygtukų su juodo kryžiaus žemyn,; žalią mygtuką su brūkšneliu, jei norite nutolinti; arba žalių rodyklių gretimoms žemėlapius.


METAR-TAF: